sensor_id;sensor_type;location;lat;lon;timestamp;P1;durP1;ratioP1;P2;durP2;ratioP2
68353;SDS011;55274;43.060;25.618;2023-12-07T00:01:16;14.82;;;6.72;;
68353;SDS011;55274;43.060;25.618;2023-12-07T00:03:42;17.42;;;6.85;;
68353;SDS011;55274;43.060;25.618;2023-12-07T00:06:08;16.00;;;6.93;;
68353;SDS011;55274;43.060;25.618;2023-12-07T00:08:34;15.70;;;7.00;;
68353;SDS011;55274;43.060;25.618;2023-12-07T00:11:00;16.45;;;8.23;;
68353;SDS011;55274;43.060;25.618;2023-12-07T00:13:26;15.57;;;7.45;;
68353;SDS011;55274;43.060;25.618;2023-12-07T00:15:52;16.13;;;7.07;;
68353;SDS011;55274;43.060;25.618;2023-12-07T00:18:18;16.13;;;6.93;;
68353;SDS011;55274;43.060;25.618;2023-12-07T00:20:44;14.77;;;6.68;;
68353;SDS011;55274;43.060;25.618;2023-12-07T00:23:10;16.25;;;7.28;;
68353;SDS011;55274;43.060;25.618;2023-12-07T00:25:36;19.83;;;8.40;;
68353;SDS011;55274;43.060;25.618;2023-12-07T00:28:03;20.23;;;8.15;;
68353;SDS011;55274;43.060;25.618;2023-12-07T00:30:30;22.70;;;10.18;;
68353;SDS011;55274;43.060;25.618;2023-12-07T00:32:57;19.85;;;8.98;;
68353;SDS011;55274;43.060;25.618;2023-12-07T00:35:22;27.50;;;11.18;;
68353;SDS011;55274;43.060;25.618;2023-12-07T00:37:48;30.80;;;12.18;;
68353;SDS011;55274;43.060;25.618;2023-12-07T00:40:14;20.50;;;9.18;;
68353;SDS011;55274;43.060;25.618;2023-12-07T00:42:40;14.15;;;6.97;;
68353;SDS011;55274;43.060;25.618;2023-12-07T00:45:06;16.90;;;7.38;;
68353;SDS011;55274;43.060;25.618;2023-12-07T00:47:32;13.95;;;6.53;;
68353;SDS011;55274;43.060;25.618;2023-12-07T00:49:58;13.27;;;6.47;;
68353;SDS011;55274;43.060;25.618;2023-12-07T00:52:24;14.52;;;6.13;;
68353;SDS011;55274;43.060;25.618;2023-12-07T00:54:50;13.38;;;6.07;;
68353;SDS011;55274;43.060;25.618;2023-12-07T00:57:16;12.23;;;6.05;;
68353;SDS011;55274;43.060;25.618;2023-12-07T00:59:42;11.95;;;5.43;;
68353;SDS011;55274;43.060;25.618;2023-12-07T01:02:07;13.55;;;5.93;;
68353;SDS011;55274;43.060;25.618;2023-12-07T01:04:33;12.43;;;5.72;;
68353;SDS011;55274;43.060;25.618;2023-12-07T01:06:59;11.65;;;5.55;;
68353;SDS011;55274;43.060;25.618;2023-12-07T01:09:25;11.52;;;5.75;;
68353;SDS011;55274;43.060;25.618;2023-12-07T01:11:51;16.13;;;6.18;;
68353;SDS011;55274;43.060;25.618;2023-12-07T01:14:18;13.73;;;6.47;;
68353;SDS011;55274;43.060;25.618;2023-12-07T01:16:44;13.18;;;6.90;;
68353;SDS011;55274;43.060;25.618;2023-12-07T01:19:10;12.65;;;6.68;;
68353;SDS011;55274;43.060;25.618;2023-12-07T01:21:40;13.15;;;6.82;;
68353;SDS011;55274;43.060;25.618;2023-12-07T01:24:07;13.38;;;6.47;;
68353;SDS011;55274;43.060;25.618;2023-12-07T01:26:33;13.35;;;6.72;;
68353;SDS011;55274;43.060;25.618;2023-12-07T01:28:59;14.38;;;7.43;;
68353;SDS011;55274;43.060;25.618;2023-12-07T01:31:24;16.45;;;6.57;;
68353;SDS011;55274;43.060;25.618;2023-12-07T01:33:50;15.70;;;6.47;;
68353;SDS011;55274;43.060;25.618;2023-12-07T01:36:16;13.32;;;6.72;;
68353;SDS011;55274;43.060;25.618;2023-12-07T01:38:42;13.63;;;6.43;;
68353;SDS011;55274;43.060;25.618;2023-12-07T01:41:08;12.20;;;5.55;;
68353;SDS011;55274;43.060;25.618;2023-12-07T01:43:35;11.82;;;5.88;;
68353;SDS011;55274;43.060;25.618;2023-12-07T01:46:00;18.52;;;7.82;;
68353;SDS011;55274;43.060;25.618;2023-12-07T01:48:28;13.73;;;6.45;;
68353;SDS011;55274;43.060;25.618;2023-12-07T01:50:55;12.88;;;6.32;;
68353;SDS011;55274;43.060;25.618;2023-12-07T01:53:23;13.88;;;6.25;;
68353;SDS011;55274;43.060;25.618;2023-12-07T01:55:52;15.27;;;6.30;;
68353;SDS011;55274;43.060;25.618;2023-12-07T01:58:19;12.30;;;5.70;;
68353;SDS011;55274;43.060;25.618;2023-12-07T02:00:46;11.10;;;5.68;;
68353;SDS011;55274;43.060;25.618;2023-12-07T02:03:12;11.80;;;5.50;;
68353;SDS011;55274;43.060;25.618;2023-12-07T02:05:43;12.77;;;5.93;;
68353;SDS011;55274;43.060;25.618;2023-12-07T02:08:12;15.73;;;6.05;;
68353;SDS011;55274;43.060;25.618;2023-12-07T02:10:38;7.63;;;4.28;;
68353;SDS011;55274;43.060;25.618;2023-12-07T02:13:04;7.65;;;4.47;;
68353;SDS011;55274;43.060;25.618;2023-12-07T02:15:31;8.93;;;4.10;;
68353;SDS011;55274;43.060;25.618;2023-12-07T02:23:01;8.27;;;4.43;;
68353;SDS011;55274;43.060;25.618;2023-12-07T02:25:40;8.45;;;4.57;;
68353;SDS011;55274;43.060;25.618;2023-12-07T02:28:47;11.88;;;5.28;;
68353;SDS011;55274;43.060;25.618;2023-12-07T02:31:13;9.27;;;4.72;;
68353;SDS011;55274;43.060;25.618;2023-12-07T02:33:39;10.02;;;4.90;;
68353;SDS011;55274;43.060;25.618;2023-12-07T02:36:05;10.68;;;4.85;;
68353;SDS011;55274;43.060;25.618;2023-12-07T02:38:31;9.52;;;4.85;;
68353;SDS011;55274;43.060;25.618;2023-12-07T02:40:58;10.10;;;4.95;;
68353;SDS011;55274;43.060;25.618;2023-12-07T02:43:25;7.78;;;4.63;;
68353;SDS011;55274;43.060;25.618;2023-12-07T02:45:52;9.02;;;4.82;;
68353;SDS011;55274;43.060;25.618;2023-12-07T02:48:20;8.02;;;4.22;;
68353;SDS011;55274;43.060;25.618;2023-12-07T02:50:46;9.60;;;4.30;;
68353;SDS011;55274;43.060;25.618;2023-12-07T02:53:12;7.55;;;3.95;;
68353;SDS011;55274;43.060;25.618;2023-12-07T02:55:38;7.07;;;3.58;;
68353;SDS011;55274;43.060;25.618;2023-12-07T02:58:04;6.07;;;3.60;;
68353;SDS011;55274;43.060;25.618;2023-12-07T03:00:30;8.65;;;4.22;;
68353;SDS011;55274;43.060;25.618;2023-12-07T03:02:55;5.75;;;3.58;;
68353;SDS011;55274;43.060;25.618;2023-12-07T03:05:21;7.35;;;3.63;;
68353;SDS011;55274;43.060;25.618;2023-12-07T03:07:48;6.68;;;3.67;;
68353;SDS011;55274;43.060;25.618;2023-12-07T03:10:14;7.82;;;3.35;;
68353;SDS011;55274;43.060;25.618;2023-12-07T03:12:40;6.22;;;3.78;;
68353;SDS011;55274;43.060;25.618;2023-12-07T03:15:06;5.82;;;3.33;;
68353;SDS011;55274;43.060;25.618;2023-12-07T03:17:32;7.07;;;3.70;;
68353;SDS011;55274;43.060;25.618;2023-12-07T03:19:57;6.97;;;3.60;;
68353;SDS011;55274;43.060;25.618;2023-12-07T03:22:23;5.32;;;3.20;;
68353;SDS011;55274;43.060;25.618;2023-12-07T03:24:51;6.38;;;3.90;;
68353;SDS011;55274;43.060;25.618;2023-12-07T03:27:17;6.38;;;3.30;;
68353;SDS011;55274;43.060;25.618;2023-12-07T03:29:43;7.43;;;3.80;;
68353;SDS011;55274;43.060;25.618;2023-12-07T03:32:09;8.88;;;4.20;;
68353;SDS011;55274;43.060;25.618;2023-12-07T03:34:35;7.25;;;4.22;;
68353;SDS011;55274;43.060;25.618;2023-12-07T03:37:01;8.40;;;4.03;;
68353;SDS011;55274;43.060;25.618;2023-12-07T03:39:28;7.60;;;4.10;;
68353;SDS011;55274;43.060;25.618;2023-12-07T03:41:54;6.93;;;3.75;;
68353;SDS011;55274;43.060;25.618;2023-12-07T03:44:20;6.10;;;3.55;;
68353;SDS011;55274;43.060;25.618;2023-12-07T03:46:46;7.50;;;4.00;;
68353;SDS011;55274;43.060;25.618;2023-12-07T03:49:12;6.25;;;3.58;;
68353;SDS011;55274;43.060;25.618;2023-12-07T03:51:38;6.18;;;3.90;;
68353;SDS011;55274;43.060;25.618;2023-12-07T03:54:04;7.90;;;3.97;;
68353;SDS011;55274;43.060;25.618;2023-12-07T03:56:31;7.60;;;4.13;;
68353;SDS011;55274;43.060;25.618;2023-12-07T03:58:57;6.53;;;3.80;;
68353;SDS011;55274;43.060;25.618;2023-12-07T04:01:27;8.30;;;4.03;;
68353;SDS011;55274;43.060;25.618;2023-12-07T04:03:54;6.13;;;3.58;;
68353;SDS011;55274;43.060;25.618;2023-12-07T04:06:21;6.93;;;3.85;;
68353;SDS011;55274;43.060;25.618;2023-12-07T04:08:48;7.25;;;3.72;;
68353;SDS011;55274;43.060;25.618;2023-12-07T04:11:14;8.90;;;3.90;;
68353;SDS011;55274;43.060;25.618;2023-12-07T04:13:40;6.97;;;3.90;;
68353;SDS011;55274;43.060;25.618;2023-12-07T04:16:07;8.32;;;4.40;;
68353;SDS011;55274;43.060;25.618;2023-12-07T04:18:34;7.53;;;3.60;;
68353;SDS011;55274;43.060;25.618;2023-12-07T04:21:00;6.20;;;3.60;;
68353;SDS011;55274;43.060;25.618;2023-12-07T04:23:25;6.93;;;3.88;;
68353;SDS011;55274;43.060;25.618;2023-12-07T04:25:51;6.10;;;3.58;;
68353;SDS011;55274;43.060;25.618;2023-12-07T04:28:17;7.00;;;3.75;;
68353;SDS011;55274;43.060;25.618;2023-12-07T04:30:43;10.45;;;4.72;;
68353;SDS011;55274;43.060;25.618;2023-12-07T04:33:09;19.65;;;9.38;;
68353;SDS011;55274;43.060;25.618;2023-12-07T04:35:35;17.75;;;7.90;;
68353;SDS011;55274;43.060;25.618;2023-12-07T04:38:01;15.70;;;6.80;;
68353;SDS011;55274;43.060;25.618;2023-12-07T04:40:27;10.95;;;4.97;;
68353;SDS011;55274;43.060;25.618;2023-12-07T04:42:54;11.50;;;4.50;;
68353;SDS011;55274;43.060;25.618;2023-12-07T04:45:20;12.07;;;5.00;;
68353;SDS011;55274;43.060;25.618;2023-12-07T04:47:45;15.70;;;7.22;;
68353;SDS011;55274;43.060;25.618;2023-12-07T04:50:12;16.50;;;7.25;;
68353;SDS011;55274;43.060;25.618;2023-12-07T04:52:38;15.52;;;6.68;;
68353;SDS011;55274;43.060;25.618;2023-12-07T04:55:04;13.80;;;6.25;;
68353;SDS011;55274;43.060;25.618;2023-12-07T04:57:34;21.70;;;9.10;;
68353;SDS011;55274;43.060;25.618;2023-12-07T05:00:04;24.17;;;9.27;;
68353;SDS011;55274;43.060;25.618;2023-12-07T05:02:35;19.35;;;7.97;;
68353;SDS011;55274;43.060;25.618;2023-12-07T05:05:01;22.90;;;9.45;;
68353;SDS011;55274;43.060;25.618;2023-12-07T05:07:27;29.00;;;10.48;;
68353;SDS011;55274;43.060;25.618;2023-12-07T05:09:53;14.07;;;6.60;;
68353;SDS011;55274;43.060;25.618;2023-12-07T05:12:18;14.55;;;6.32;;
68353;SDS011;55274;43.060;25.618;2023-12-07T05:14:44;15.90;;;6.40;;
68353;SDS011;55274;43.060;25.618;2023-12-07T05:17:10;12.95;;;5.85;;
68353;SDS011;55274;43.060;25.618;2023-12-07T05:19:36;20.27;;;8.65;;
68353;SDS011;55274;43.060;25.618;2023-12-07T05:22:02;17.80;;;8.15;;
68353;SDS011;55274;43.060;25.618;2023-12-07T05:24:28;16.45;;;7.63;;
68353;SDS011;55274;43.060;25.618;2023-12-07T05:26:55;16.77;;;7.78;;
68353;SDS011;55274;43.060;25.618;2023-12-07T05:29:21;17.67;;;7.65;;
68353;SDS011;55274;43.060;25.618;2023-12-07T05:31:50;19.17;;;8.55;;
68353;SDS011;55274;43.060;25.618;2023-12-07T05:34:16;23.52;;;8.18;;
68353;SDS011;55274;43.060;25.618;2023-12-07T05:36:43;19.05;;;7.82;;
68353;SDS011;55274;43.060;25.618;2023-12-07T05:39:09;13.18;;;6.47;;
68353;SDS011;55274;43.060;25.618;2023-12-07T05:41:36;18.92;;;7.63;;
68353;SDS011;55274;43.060;25.618;2023-12-07T05:44:02;11.07;;;5.43;;
68353;SDS011;55274;43.060;25.618;2023-12-07T05:46:29;11.68;;;5.53;;
68353;SDS011;55274;43.060;25.618;2023-12-07T05:48:55;21.90;;;9.70;;
68353;SDS011;55274;43.060;25.618;2023-12-07T05:51:21;34.30;;;14.18;;
68353;SDS011;55274;43.060;25.618;2023-12-07T05:53:47;20.92;;;8.88;;
68353;SDS011;55274;43.060;25.618;2023-12-07T05:56:17;19.83;;;7.72;;
68353;SDS011;55274;43.060;25.618;2023-12-07T05:58:46;17.92;;;6.63;;
68353;SDS011;55274;43.060;25.618;2023-12-07T06:01:16;11.45;;;4.97;;
68353;SDS011;55274;43.060;25.618;2023-12-07T06:03:43;12.25;;;5.43;;
68353;SDS011;55274;43.060;25.618;2023-12-07T06:06:09;11.43;;;5.18;;
68353;SDS011;55274;43.060;25.618;2023-12-07T06:08:38;9.85;;;5.30;;
68353;SDS011;55274;43.060;25.618;2023-12-07T06:11:04;16.23;;;7.18;;
68353;SDS011;55274;43.060;25.618;2023-12-07T06:13:30;10.60;;;4.93;;
68353;SDS011;55274;43.060;25.618;2023-12-07T06:15:56;13.18;;;5.60;;
68353;SDS011;55274;43.060;25.618;2023-12-07T06:18:22;13.57;;;5.50;;
68353;SDS011;55274;43.060;25.618;2023-12-07T06:20:48;9.77;;;4.50;;
68353;SDS011;55274;43.060;25.618;2023-12-07T06:23:14;10.93;;;5.10;;
68353;SDS011;55274;43.060;25.618;2023-12-07T06:25:40;11.55;;;4.85;;
68353;SDS011;55274;43.060;25.618;2023-12-07T06:28:06;19.85;;;8.35;;
68353;SDS011;55274;43.060;25.618;2023-12-07T06:30:32;19.45;;;7.55;;
68353;SDS011;55274;43.060;25.618;2023-12-07T06:32:58;16.20;;;7.13;;
68353;SDS011;55274;43.060;25.618;2023-12-07T06:35:23;17.40;;;8.30;;
68353;SDS011;55274;43.060;25.618;2023-12-07T06:37:49;17.33;;;7.60;;
68353;SDS011;55274;43.060;25.618;2023-12-07T06:40:15;15.98;;;7.25;;
68353;SDS011;55274;43.060;25.618;2023-12-07T06:42:41;18.33;;;8.07;;
68353;SDS011;55274;43.060;25.618;2023-12-07T06:45:07;16.98;;;6.85;;
68353;SDS011;55274;43.060;25.618;2023-12-07T06:47:39;25.95;;;10.02;;
68353;SDS011;55274;43.060;25.618;2023-12-07T06:50:07;22.13;;;9.20;;
68353;SDS011;55274;43.060;25.618;2023-12-07T06:52:38;11.98;;;5.28;;
68353;SDS011;55274;43.060;25.618;2023-12-07T06:55:05;8.95;;;4.10;;
68353;SDS011;55274;43.060;25.618;2023-12-07T06:57:31;16.80;;;7.18;;
68353;SDS011;55274;43.060;25.618;2023-12-07T06:59:58;26.98;;;10.07;;
68353;SDS011;55274;43.060;25.618;2023-12-07T07:02:24;22.05;;;8.32;;
68353;SDS011;55274;43.060;25.618;2023-12-07T07:04:50;24.00;;;10.10;;
68353;SDS011;55274;43.060;25.618;2023-12-07T07:07:17;17.92;;;7.60;;
68353;SDS011;55274;43.060;25.618;2023-12-07T07:09:43;15.23;;;6.20;;
68353;SDS011;55274;43.060;25.618;2023-12-07T07:12:08;14.45;;;6.50;;
68353;SDS011;55274;43.060;25.618;2023-12-07T07:14:35;10.05;;;4.70;;
68353;SDS011;55274;43.060;25.618;2023-12-07T07:17:00;9.55;;;4.18;;
68353;SDS011;55274;43.060;25.618;2023-12-07T07:19:26;8.90;;;3.95;;
68353;SDS011;55274;43.060;25.618;2023-12-07T07:21:52;9.77;;;4.03;;
68353;SDS011;55274;43.060;25.618;2023-12-07T07:24:18;6.88;;;3.20;;
68353;SDS011;55274;43.060;25.618;2023-12-07T07:26:44;7.72;;;3.45;;
68353;SDS011;55274;43.060;25.618;2023-12-07T07:29:10;7.35;;;3.53;;
68353;SDS011;55274;43.060;25.618;2023-12-07T07:31:35;6.68;;;3.13;;
68353;SDS011;55274;43.060;25.618;2023-12-07T07:34:02;6.68;;;3.42;;
68353;SDS011;55274;43.060;25.618;2023-12-07T07:36:27;8.80;;;4.18;;
68353;SDS011;55274;43.060;25.618;2023-12-07T07:38:54;8.10;;;3.83;;
68353;SDS011;55274;43.060;25.618;2023-12-07T07:41:20;7.13;;;3.00;;
68353;SDS011;55274;43.060;25.618;2023-12-07T07:43:46;7.57;;;3.60;;
68353;SDS011;55274;43.060;25.618;2023-12-07T07:46:12;9.90;;;4.25;;
68353;SDS011;55274;43.060;25.618;2023-12-07T07:48:38;8.20;;;3.25;;
68353;SDS011;55274;43.060;25.618;2023-12-07T07:51:04;9.60;;;3.72;;
68353;SDS011;55274;43.060;25.618;2023-12-07T07:53:30;11.02;;;3.97;;
68353;SDS011;55274;43.060;25.618;2023-12-07T07:55:56;17.48;;;6.57;;
68353;SDS011;55274;43.060;25.618;2023-12-07T07:58:22;60.95;;;22.23;;
68353;SDS011;55274;43.060;25.618;2023-12-07T08:00:48;29.83;;;11.27;;
68353;SDS011;55274;43.060;25.618;2023-12-07T08:03:14;19.40;;;8.23;;
68353;SDS011;55274;43.060;25.618;2023-12-07T08:05:40;20.38;;;8.02;;
68353;SDS011;55274;43.060;25.618;2023-12-07T08:08:06;12.45;;;5.20;;
68353;SDS011;55274;43.060;25.618;2023-12-07T08:10:32;9.93;;;4.47;;
68353;SDS011;55274;43.060;25.618;2023-12-07T08:12:58;12.13;;;5.07;;
68353;SDS011;55274;43.060;25.618;2023-12-07T08:15:24;21.17;;;7.90;;
68353;SDS011;55274;43.060;25.618;2023-12-07T08:17:50;15.40;;;7.28;;
68353;SDS011;55274;43.060;25.618;2023-12-07T08:20:16;16.40;;;6.88;;
68353;SDS011;55274;43.060;25.618;2023-12-07T08:22:41;13.95;;;6.20;;
68353;SDS011;55274;43.060;25.618;2023-12-07T08:25:09;17.55;;;6.88;;
68353;SDS011;55274;43.060;25.618;2023-12-07T08:27:36;12.85;;;5.85;;
68353;SDS011;55274;43.060;25.618;2023-12-07T08:30:03;14.45;;;6.20;;
68353;SDS011;55274;43.060;25.618;2023-12-07T08:32:30;29.83;;;11.77;;
68353;SDS011;55274;43.060;25.618;2023-12-07T08:34:56;14.70;;;6.68;;
68353;SDS011;55274;43.060;25.618;2023-12-07T08:37:22;14.77;;;6.30;;
68353;SDS011;55274;43.060;25.618;2023-12-07T08:39:48;12.07;;;4.80;;
68353;SDS011;55274;43.060;25.618;2023-12-07T08:42:14;11.15;;;4.20;;
68353;SDS011;55274;43.060;25.618;2023-12-07T08:44:40;8.25;;;3.70;;
68353;SDS011;55274;43.060;25.618;2023-12-07T08:47:06;8.90;;;3.80;;
68353;SDS011;55274;43.060;25.618;2023-12-07T08:49:32;10.25;;;4.20;;
68353;SDS011;55274;43.060;25.618;2023-12-07T08:51:58;24.27;;;9.50;;
68353;SDS011;55274;43.060;25.618;2023-12-07T08:54:24;24.05;;;9.65;;
68353;SDS011;55274;43.060;25.618;2023-12-07T08:56:50;12.77;;;5.68;;
68353;SDS011;55274;43.060;25.618;2023-12-07T08:59:16;11.90;;;4.55;;
68353;SDS011;55274;43.060;25.618;2023-12-07T09:01:42;10.77;;;4.65;;
68353;SDS011;55274;43.060;25.618;2023-12-07T09:04:08;10.48;;;4.68;;
68353;SDS011;55274;43.060;25.618;2023-12-07T09:06:35;16.33;;;6.05;;
68353;SDS011;55274;43.060;25.618;2023-12-07T09:09:02;13.10;;;5.32;;
68353;SDS011;55274;43.060;25.618;2023-12-07T09:11:29;13.95;;;6.05;;
68353;SDS011;55274;43.060;25.618;2023-12-07T09:13:55;15.75;;;7.25;;
68353;SDS011;55274;43.060;25.618;2023-12-07T09:16:22;17.52;;;7.63;;
68353;SDS011;55274;43.060;25.618;2023-12-07T09:18:48;16.17;;;5.95;;
68353;SDS011;55274;43.060;25.618;2023-12-07T09:21:14;18.52;;;7.40;;
68353;SDS011;55274;43.060;25.618;2023-12-07T09:23:40;13.60;;;5.30;;
68353;SDS011;55274;43.060;25.618;2023-12-07T09:26:06;11.07;;;4.32;;
68353;SDS011;55274;43.060;25.618;2023-12-07T09:28:33;7.80;;;3.47;;
68353;SDS011;55274;43.060;25.618;2023-12-07T09:30:59;11.02;;;4.35;;
68353;SDS011;55274;43.060;25.618;2023-12-07T09:33:25;19.45;;;7.68;;
68353;SDS011;55274;43.060;25.618;2023-12-07T09:35:51;11.55;;;5.18;;
68353;SDS011;55274;43.060;25.618;2023-12-07T09:38:17;8.93;;;4.57;;
68353;SDS011;55274;43.060;25.618;2023-12-07T09:40:43;11.05;;;6.97;;
68353;SDS011;55274;43.060;25.618;2023-12-07T09:43:10;8.70;;;4.10;;
68353;SDS011;55274;43.060;25.618;2023-12-07T09:45:37;8.20;;;3.65;;
68353;SDS011;55274;43.060;25.618;2023-12-07T09:48:03;9.52;;;4.03;;
68353;SDS011;55274;43.060;25.618;2023-12-07T09:50:30;12.00;;;5.63;;
68353;SDS011;55274;43.060;25.618;2023-12-07T09:52:56;15.50;;;7.13;;
68353;SDS011;55274;43.060;25.618;2023-12-07T09:55:23;18.90;;;7.70;;
68353;SDS011;55274;43.060;25.618;2023-12-07T09:57:52;23.10;;;8.93;;
68353;SDS011;55274;43.060;25.618;2023-12-07T10:00:21;17.95;;;7.60;;
68353;SDS011;55274;43.060;25.618;2023-12-07T10:02:48;11.52;;;5.00;;
68353;SDS011;55274;43.060;25.618;2023-12-07T10:05:15;11.23;;;5.32;;
68353;SDS011;55274;43.060;25.618;2023-12-07T10:07:45;13.10;;;5.50;;
68353;SDS011;55274;43.060;25.618;2023-12-07T10:10:13;11.60;;;5.07;;
68353;SDS011;55274;43.060;25.618;2023-12-07T10:12:55;11.80;;;4.75;;
68353;SDS011;55274;43.060;25.618;2023-12-07T10:15:24;12.60;;;4.05;;
68353;SDS011;55274;43.060;25.618;2023-12-07T10:17:57;12.27;;;4.90;;
68353;SDS011;55274;43.060;25.618;2023-12-07T10:20:25;20.85;;;8.23;;
68353;SDS011;55274;43.060;25.618;2023-12-07T10:23:05;20.42;;;8.70;;
68353;SDS011;55274;43.060;25.618;2023-12-07T10:25:39;11.30;;;4.75;;
68353;SDS011;55274;43.060;25.618;2023-12-07T10:28:09;7.93;;;4.05;;
68353;SDS011;55274;43.060;25.618;2023-12-07T10:33:05;17.33;;;6.85;;
68353;SDS011;55274;43.060;25.618;2023-12-07T10:35:32;18.45;;;7.78;;
68353;SDS011;55274;43.060;25.618;2023-12-07T10:37:58;9.07;;;4.60;;
68353;SDS011;55274;43.060;25.618;2023-12-07T10:40:24;10.23;;;4.30;;
68353;SDS011;55274;43.060;25.618;2023-12-07T10:42:52;7.43;;;3.47;;
68353;SDS011;55274;43.060;25.618;2023-12-07T10:45:22;7.28;;;3.35;;
68353;SDS011;55274;43.060;25.618;2023-12-07T10:47:50;6.28;;;3.13;;
68353;SDS011;55274;43.060;25.618;2023-12-07T10:50:21;5.55;;;3.10;;
68353;SDS011;55274;43.060;25.618;2023-12-07T10:52:51;5.53;;;2.58;;
68353;SDS011;55274;43.060;25.618;2023-12-07T10:55:20;5.85;;;2.95;;
68353;SDS011;55274;43.060;25.618;2023-12-07T10:57:52;6.13;;;2.78;;
68353;SDS011;55274;43.060;25.618;2023-12-07T11:00:21;6.93;;;3.13;;
68353;SDS011;55274;43.060;25.618;2023-12-07T11:02:53;8.50;;;3.72;;
68353;SDS011;55274;43.060;25.618;2023-12-07T11:05:19;7.97;;;4.13;;
68353;SDS011;55274;43.060;25.618;2023-12-07T11:07:49;8.27;;;3.97;;
68353;SDS011;55274;43.060;25.618;2023-12-07T11:11:04;7.68;;;3.05;;
68353;SDS011;55274;43.060;25.618;2023-12-07T11:13:27;6.85;;;3.50;;
68353;SDS011;55274;43.060;25.618;2023-12-07T11:15:57;9.55;;;4.38;;
68353;SDS011;55274;43.060;25.618;2023-12-07T11:18:27;9.82;;;3.95;;
68353;SDS011;55274;43.060;25.618;2023-12-07T11:20:54;8.88;;;3.40;;
68353;SDS011;55274;43.060;25.618;2023-12-07T11:23:21;7.30;;;3.53;;
68353;SDS011;55274;43.060;25.618;2023-12-07T11:25:47;6.47;;;3.00;;
68353;SDS011;55274;43.060;25.618;2023-12-07T11:28:15;6.05;;;3.00;;
68353;SDS011;55274;43.060;25.618;2023-12-07T11:30:44;9.13;;;3.75;;
68353;SDS011;55274;43.060;25.618;2023-12-07T11:33:11;7.63;;;3.30;;
68353;SDS011;55274;43.060;25.618;2023-12-07T11:38:26;6.32;;;2.60;;
68353;SDS011;55274;43.060;25.618;2023-12-07T11:40:53;5.70;;;2.85;;
68353;SDS011;55274;43.060;25.618;2023-12-07T11:46:00;8.18;;;3.42;;
68353;SDS011;55274;43.060;25.618;2023-12-07T11:48:26;19.35;;;7.03;;
68353;SDS011;55274;43.060;25.618;2023-12-07T11:53:33;13.10;;;5.50;;
68353;SDS011;55274;43.060;25.618;2023-12-07T11:58:29;5.15;;;2.53;;
68353;SDS011;55274;43.060;25.618;2023-12-07T12:00:56;7.63;;;3.05;;
68353;SDS011;55274;43.060;25.618;2023-12-07T12:03:26;4.82;;;2.60;;
68353;SDS011;55274;43.060;25.618;2023-12-07T12:05:53;8.07;;;3.78;;
68353;SDS011;55274;43.060;25.618;2023-12-07T12:08:22;11.70;;;5.80;;
68353;SDS011;55274;43.060;25.618;2023-12-07T12:10:52;8.43;;;4.15;;
68353;SDS011;55274;43.060;25.618;2023-12-07T12:13:25;5.30;;;2.40;;
68353;SDS011;55274;43.060;25.618;2023-12-07T12:15:53;4.88;;;2.63;;
68353;SDS011;55274;43.060;25.618;2023-12-07T12:18:21;3.83;;;2.40;;
68353;SDS011;55274;43.060;25.618;2023-12-07T12:20:47;6.45;;;2.78;;
68353;SDS011;55274;43.060;25.618;2023-12-07T12:23:15;3.97;;;2.33;;
68353;SDS011;55274;43.060;25.618;2023-12-07T12:25:41;5.55;;;2.40;;
68353;SDS011;55274;43.060;25.618;2023-12-07T12:28:07;6.60;;;2.78;;
68353;SDS011;55274;43.060;25.618;2023-12-07T12:30:34;6.60;;;3.45;;
68353;SDS011;55274;43.060;25.618;2023-12-07T12:33:01;7.30;;;3.10;;
68353;SDS011;55274;43.060;25.618;2023-12-07T12:35:28;5.82;;;2.92;;
68353;SDS011;55274;43.060;25.618;2023-12-07T12:37:54;6.10;;;2.92;;
68353;SDS011;55274;43.060;25.618;2023-12-07T12:40:21;3.72;;;2.33;;
68353;SDS011;55274;43.060;25.618;2023-12-07T12:42:51;6.03;;;2.63;;
68353;SDS011;55274;43.060;25.618;2023-12-07T12:45:18;6.35;;;2.85;;
68353;SDS011;55274;43.060;25.618;2023-12-07T12:47:45;6.95;;;3.17;;
68353;SDS011;55274;43.060;25.618;2023-12-07T12:50:12;6.07;;;3.50;;
68353;SDS011;55274;43.060;25.618;2023-12-07T12:53:02;8.88;;;3.90;;
68353;SDS011;55274;43.060;25.618;2023-12-07T12:55:35;11.90;;;4.80;;
68353;SDS011;55274;43.060;25.618;2023-12-07T12:58:02;10.45;;;5.15;;
68353;SDS011;55274;43.060;25.618;2023-12-07T13:00:30;4.18;;;2.53;;
68353;SDS011;55274;43.060;25.618;2023-12-07T13:02:58;5.50;;;2.50;;
68353;SDS011;55274;43.060;25.618;2023-12-07T13:05:25;7.68;;;3.60;;
68353;SDS011;55274;43.060;25.618;2023-12-07T13:07:51;6.57;;;3.38;;
68353;SDS011;55274;43.060;25.618;2023-12-07T13:10:17;4.38;;;2.85;;
68353;SDS011;55274;43.060;25.618;2023-12-07T13:12:43;4.10;;;2.33;;
68353;SDS011;55274;43.060;25.618;2023-12-07T13:15:10;5.55;;;2.80;;
68353;SDS011;55274;43.060;25.618;2023-12-07T13:17:40;5.47;;;2.67;;
68353;SDS011;55274;43.060;25.618;2023-12-07T13:20:07;11.00;;;4.68;;
68353;SDS011;55274;43.060;25.618;2023-12-07T13:25:11;7.47;;;3.70;;
68353;SDS011;55274;43.060;25.618;2023-12-07T13:27:39;6.32;;;3.58;;
68353;SDS011;55274;43.060;25.618;2023-12-07T13:30:06;6.55;;;3.35;;
68353;SDS011;55274;43.060;25.618;2023-12-07T13:32:32;8.27;;;3.67;;
68353;SDS011;55274;43.060;25.618;2023-12-07T13:34:59;7.18;;;3.58;;
68353;SDS011;55274;43.060;25.618;2023-12-07T13:37:25;7.18;;;3.40;;
68353;SDS011;55274;43.060;25.618;2023-12-07T13:39:52;6.47;;;3.50;;
68353;SDS011;55274;43.060;25.618;2023-12-07T13:42:26;6.15;;;3.42;;
68353;SDS011;55274;43.060;25.618;2023-12-07T13:44:56;6.97;;;3.70;;
68353;SDS011;55274;43.060;25.618;2023-12-07T13:47:25;5.57;;;2.83;;
68353;SDS011;55274;43.060;25.618;2023-12-07T13:50:01;5.85;;;2.78;;
68353;SDS011;55274;43.060;25.618;2023-12-07T13:52:29;6.65;;;3.10;;
68353;SDS011;55274;43.060;25.618;2023-12-07T13:54:55;5.22;;;3.03;;
68353;SDS011;55274;43.060;25.618;2023-12-07T13:57:22;5.30;;;2.90;;
68353;SDS011;55274;43.060;25.618;2023-12-07T13:59:52;4.60;;;2.65;;
68353;SDS011;55274;43.060;25.618;2023-12-07T14:02:18;6.97;;;2.90;;
68353;SDS011;55274;43.060;25.618;2023-12-07T14:04:45;6.50;;;2.90;;
68353;SDS011;55274;43.060;25.618;2023-12-07T14:07:15;5.38;;;3.15;;
68353;SDS011;55274;43.060;25.618;2023-12-07T14:09:46;6.43;;;3.17;;
68353;SDS011;55274;43.060;25.618;2023-12-07T14:12:14;7.00;;;3.10;;
68353;SDS011;55274;43.060;25.618;2023-12-07T14:14:43;6.90;;;3.47;;
68353;SDS011;55274;43.060;25.618;2023-12-07T14:17:11;8.48;;;3.70;;
68353;SDS011;55274;43.060;25.618;2023-12-07T14:19:38;8.02;;;4.05;;
68353;SDS011;55274;43.060;25.618;2023-12-07T14:22:04;7.72;;;3.70;;
68353;SDS011;55274;43.060;25.618;2023-12-07T14:24:30;10.90;;;4.47;;
68353;SDS011;55274;43.060;25.618;2023-12-07T14:26:56;11.07;;;4.80;;
68353;SDS011;55274;43.060;25.618;2023-12-07T14:29:23;8.52;;;4.13;;
68353;SDS011;55274;43.060;25.618;2023-12-07T14:31:50;31.98;;;13.50;;
68353;SDS011;55274;43.060;25.618;2023-12-07T14:34:17;15.73;;;7.32;;
68353;SDS011;55274;43.060;25.618;2023-12-07T14:36:44;12.40;;;5.63;;
68353;SDS011;55274;43.060;25.618;2023-12-07T14:39:13;13.93;;;5.72;;
68353;SDS011;55274;43.060;25.618;2023-12-07T14:41:45;8.77;;;4.28;;
68353;SDS011;55274;43.060;25.618;2023-12-07T14:44:15;8.05;;;4.03;;
68353;SDS011;55274;43.060;25.618;2023-12-07T14:46:45;10.02;;;5.00;;